Aviation Digital Data Service (ADDS)

Output produced by METARs form (1913 UTC 19 August 2019)
found at http://www.aviationweather.gov/metar/data/
 
METAR text: UIII 191900Z 30004MPS 9999 SCT050CB 12/11 Q1015 R30/CLRD60 NOSIG RMK QFE716/0955
Conditions at: UIII (IRKUTSK , RU) observed 1900 UTC 19 August 2019
Temperature: 12.0°C (54°F)
Dewpoint: 11.0°C (52°F) [RH = 94%]
Pressure (altimeter): 29.97 inches Hg (1015.0 mb)
Winds: from the WNW (300 degrees) at 9 MPH (8 knots; 4.1 m/s)
Visibility: 6 or more miles (10+ km)
Ceiling: at least 12,000 feet AGL
Clouds: scattered clouds at 5000 feet AGL
Weather: no significant weather observed at this time

METAR text: UIII 191830Z 30005MPS 9999 SCT050CB 13/11 Q1015 R30/CLRD60 NOSIG RMK QFE716/0955
Conditions at: UIII (IRKUTSK , RU) observed 1830 UTC 19 August 2019
Temperature: 13.0°C (55°F)
Dewpoint: 11.0°C (52°F) [RH = 88%]
Pressure (altimeter): 29.97 inches Hg (1015.0 mb)
Winds: from the WNW (300 degrees) at 12 MPH (10 knots; 5.1 m/s)
Visibility: 6 or more miles (10+ km)
Ceiling: at least 12,000 feet AGL
Clouds: scattered clouds at 5000 feet AGL
Weather: no significant weather observed at this time

METAR text: UIII 191800Z 31003MPS 9999 SCT050CB 12/11 Q1015 R30/290250 NOSIG RMK QFE716/0955
Conditions at: UIII (IRKUTSK , RU) observed 1800 UTC 19 August 2019
Temperature: 12.0°C (54°F)
Dewpoint: 11.0°C (52°F) [RH = 94%]
Pressure (altimeter): 29.97 inches Hg (1015.0 mb)
Winds: from the NW (310 degrees) at 7 MPH (6 knots; 3.1 m/s)
Visibility: 6 or more miles (10+ km)
Ceiling: at least 12,000 feet AGL
Clouds: scattered clouds at 5000 feet AGL
Weather: no significant weather observed at this time

METAR text: UIII 191730Z 31004MPS 9999 BKN050CB 13/12 Q1015 R30/290250 NOSIG RMK QFE716/0955
Conditions at: UIII (IRKUTSK , RU) observed 1730 UTC 19 August 2019
Temperature: 13.0°C (55°F)
Dewpoint: 12.0°C (54°F) [RH = 94%]
Pressure (altimeter): 29.97 inches Hg (1015.0 mb)
Winds: from the NW (310 degrees) at 9 MPH (8 knots; 4.1 m/s)
Visibility: 6 or more miles (10+ km)
Ceiling: 5000 feet AGL
Clouds: broken clouds at 5000 feet AGL
Weather: no significant weather observed at this time

METAR text: UIII 191700Z 31005MPS 9999 BKN050CB 13/12 Q1015 R30/290250 NOSIG RMK QFE716/0955
Conditions at: UIII (IRKUTSK , RU) observed 1700 UTC 19 August 2019
Temperature: 13.0°C (55°F)
Dewpoint: 12.0°C (54°F) [RH = 94%]
Pressure (altimeter): 29.97 inches Hg (1015.0 mb)
Winds: from the NW (310 degrees) at 12 MPH (10 knots; 5.1 m/s)
Visibility: 6 or more miles (10+ km)
Ceiling: 5000 feet AGL
Clouds: broken clouds at 5000 feet AGL
Weather: no significant weather observed at this time

METAR text: UIII 191630Z 31005MPS 9999 BKN050CB 14/12 Q1014 R30/290250 NOSIG RMK QFE716/0955
Conditions at: UIII (IRKUTSK , RU) observed 1630 UTC 19 August 2019
Temperature: 14.0°C (57°F)
Dewpoint: 12.0°C (54°F) [RH = 88%]
Pressure (altimeter): 29.94 inches Hg (1014.0 mb)
Winds: from the NW (310 degrees) at 12 MPH (10 knots; 5.1 m/s)
Visibility: 6 or more miles (10+ km)
Ceiling: 5000 feet AGL
Clouds: broken clouds at 5000 feet AGL
Weather: no significant weather observed at this time

METAR text: UIII 191600Z 30007MPS 9999 BKN050CB 14/12 Q1014 R30/290250 NOSIG RMK QFE716/0955
Conditions at: UIII (IRKUTSK , RU) observed 1600 UTC 19 August 2019
Temperature: 14.0°C (57°F)
Dewpoint: 12.0°C (54°F) [RH = 88%]
Pressure (altimeter): 29.94 inches Hg (1014.0 mb)
Winds: from the WNW (300 degrees) at 16 MPH (14 knots; 7.2 m/s)
Visibility: 6 or more miles (10+ km)
Ceiling: 5000 feet AGL
Clouds: broken clouds at 5000 feet AGL
Weather: no significant weather observed at this time

METAR text: UIII 191530Z 30005MPS 9999 BKN050CB 14/12 Q1014 R30/290250 NOSIG RMK QFE716/0955
Conditions at: UIII (IRKUTSK , RU) observed 1530 UTC 19 August 2019
Temperature: 14.0°C (57°F)
Dewpoint: 12.0°C (54°F) [RH = 88%]
Pressure (altimeter): 29.94 inches Hg (1014.0 mb)
Winds: from the WNW (300 degrees) at 12 MPH (10 knots; 5.1 m/s)
Visibility: 6 or more miles (10+ km)
Ceiling: 5000 feet AGL
Clouds: broken clouds at 5000 feet AGL
Weather: no significant weather observed at this time

METAR text: UIII 191500Z 30006MPS 9999 BKN050CB 14/13 Q1014 R30/290250 NOSIG RMK QFE716/0954
Conditions at: UIII (IRKUTSK , RU) observed 1500 UTC 19 August 2019
Temperature: 14.0°C (57°F)
Dewpoint: 13.0°C (55°F) [RH = 94%]
Pressure (altimeter): 29.94 inches Hg (1014.0 mb)
Winds: from the WNW (300 degrees) at 14 MPH (12 knots; 6.2 m/s)
Visibility: 6 or more miles (10+ km)
Ceiling: 5000 feet AGL
Clouds: broken clouds at 5000 feet AGL
Weather: no significant weather observed at this time

METAR text: UIII 191430Z 29006MPS 9999 BKN050CB 15/13 Q1013 R30/290250 NOSIG RMK QFE715/0954
Conditions at: UIII (IRKUTSK , RU) observed 1430 UTC 19 August 2019
Temperature: 15.0°C (59°F)
Dewpoint: 13.0°C (55°F) [RH = 88%]
Pressure (altimeter): 29.91 inches Hg (1013.0 mb)
Winds: from the WNW (290 degrees) at 14 MPH (12 knots; 6.2 m/s)
Visibility: 6 or more miles (10+ km)
Ceiling: 5000 feet AGL
Clouds: broken clouds at 5000 feet AGL
Weather: no significant weather observed at this time

METAR text: UIII 191400Z 29006MPS 9999 BKN050CB 15/13 Q1013 R30/290250 NOSIG RMK QFE715/0954
Conditions at: UIII (IRKUTSK , RU) observed 1400 UTC 19 August 2019
Temperature: 15.0°C (59°F)
Dewpoint: 13.0°C (55°F) [RH = 88%]
Pressure (altimeter): 29.91 inches Hg (1013.0 mb)
Winds: from the WNW (290 degrees) at 14 MPH (12 knots; 6.2 m/s)
Visibility: 6 or more miles (10+ km)
Ceiling: 5000 feet AGL
Clouds: broken clouds at 5000 feet AGL
Weather: no significant weather observed at this time

METAR text: UIII 191330Z 29006MPS 9999 BKN050CB 15/14 Q1013 R30/290250 NOSIG RMK QFE715/0954
Conditions at: UIII (IRKUTSK , RU) observed 1330 UTC 19 August 2019
Temperature: 15.0°C (59°F)
Dewpoint: 14.0°C (57°F) [RH = 94%]
Pressure (altimeter): 29.91 inches Hg (1013.0 mb)
Winds: from the WNW (290 degrees) at 14 MPH (12 knots; 6.2 m/s)
Visibility: 6 or more miles (10+ km)
Ceiling: 5000 feet AGL
Clouds: broken clouds at 5000 feet AGL
Weather: no significant weather observed at this time

METAR text: UIII 191300Z 28006MPS 9000 -SHRA BKN033CB 15/14 Q1013 R30/290250 NOSIG RMK QFE715/0953
Conditions at: UIII (IRKUTSK , RU) observed 1300 UTC 19 August 2019
Temperature: 15.0°C (59°F)
Dewpoint: 14.0°C (57°F) [RH = 94%]
Pressure (altimeter): 29.91 inches Hg (1013.0 mb)
Winds: from the W (280 degrees) at 14 MPH (12 knots; 6.2 m/s)
Visibility: 6 miles ( 9 km)
Ceiling: 3300 feet AGL
Clouds: broken clouds at 3300 feet AGL
Weather: -SHRA  (light rain showers)

METAR text: UIII 191230Z 29005MPS 7000 BKN033CB 15/14 Q1012 R30/290250 NOSIG RMK QFE715/0953
Conditions at: UIII (IRKUTSK , RU) observed 1230 UTC 19 August 2019
Temperature: 15.0°C (59°F)
Dewpoint: 14.0°C (57°F) [RH = 94%]
Pressure (altimeter): 29.88 inches Hg (1012.0 mb)
Winds: from the WNW (290 degrees) at 12 MPH (10 knots; 5.1 m/s)
Visibility: 4 miles ( 7 km)
Ceiling: 3300 feet AGL
Clouds: broken clouds at 3300 feet AGL
Weather: no significant weather observed at this time

METAR text: UIII 191200Z 28006MPS 9999 BKN046CB 16/13 Q1012 R30/290250 NOSIG RMK QFE714/0953
Conditions at: UIII (IRKUTSK , RU) observed 1200 UTC 19 August 2019
Temperature: 16.0°C (61°F)
Dewpoint: 13.0°C (55°F) [RH = 82%]
Pressure (altimeter): 29.88 inches Hg (1012.0 mb)
Winds: from the W (280 degrees) at 14 MPH (12 knots; 6.2 m/s)
Visibility: 6 or more miles (10+ km)
Ceiling: 4600 feet AGL
Clouds: broken clouds at 4600 feet AGL
Weather: no significant weather observed at this time

METAR text: UIII 191130Z 27005MPS 9999 BKN033CB 16/14 Q1011 R30/290250 NOSIG RMK QFE714/0952
Conditions at: UIII (IRKUTSK , RU) observed 1130 UTC 19 August 2019
Temperature: 16.0°C (61°F)
Dewpoint: 14.0°C (57°F) [RH = 88%]
Pressure (altimeter): 29.85 inches Hg (1011.0 mb)
Winds: from the W (270 degrees) at 12 MPH (10 knots; 5.1 m/s)
Visibility: 6 or more miles (10+ km)
Ceiling: 3300 feet AGL
Clouds: broken clouds at 3300 feet AGL
Weather: no significant weather observed at this time

METAR text: UIII 191100Z 28005MPS 9000 BKN033CB 16/15 Q1011 RETSRA R30/290250 NOSIG RMK QFE714/0952
Conditions at: UIII (IRKUTSK , RU) observed 1100 UTC 19 August 2019
Temperature: 16.0°C (61°F)
Dewpoint: 15.0°C (59°F) [RH = 94%]
Pressure (altimeter): 29.85 inches Hg (1011.0 mb)
Winds: from the W (280 degrees) at 12 MPH (10 knots; 5.1 m/s)
Visibility: 6 miles ( 9 km)
Ceiling: 3300 feet AGL
Clouds: broken clouds at 3300 feet AGL
Weather: no significant weather observed at this time

METAR text: UIII 191030Z 27006MPS 9000 -TSRA BKN040CB 16/15 Q1011 R30/290250 NOSIG RMK QFE714/0952
Conditions at: UIII (IRKUTSK , RU) observed 1030 UTC 19 August 2019
Temperature: 16.0°C (61°F)
Dewpoint: 15.0°C (59°F) [RH = 94%]
Pressure (altimeter): 29.85 inches Hg (1011.0 mb)
Winds: from the W (270 degrees) at 14 MPH (12 knots; 6.2 m/s)
Visibility: 6 miles ( 9 km)
Ceiling: 4000 feet AGL
Clouds: broken clouds at 4000 feet AGL
Weather: -TSRA  (light rain associated with thunderstorm(s))

METAR text: UIII 191000Z 27005MPS 8000 -TSRA BKN040CB 15/14 Q1011 R30/290250 NOSIG RMK QFE714/0952
Conditions at: UIII (IRKUTSK , RU) observed 1000 UTC 19 August 2019
Temperature: 15.0°C (59°F)
Dewpoint: 14.0°C (57°F) [RH = 94%]
Pressure (altimeter): 29.85 inches Hg (1011.0 mb)
Winds: from the W (270 degrees) at 12 MPH (10 knots; 5.1 m/s)
Visibility: 5 miles ( 8 km)
Ceiling: 4000 feet AGL
Clouds: broken clouds at 4000 feet AGL
Weather: -TSRA  (light rain associated with thunderstorm(s))

METAR text: UIII 190930Z 31008MPS 7000 -TSRA BKN036CB 15/12 Q1011 RETSRA R30/CLRD60 NOSIG RMK QFE714/0952
Conditions at: UIII (IRKUTSK , RU) observed 0930 UTC 19 August 2019
Temperature: 15.0°C (59°F)
Dewpoint: 12.0°C (54°F) [RH = 82%]
Pressure (altimeter): 29.85 inches Hg (1011.0 mb)
Winds: from the NW (310 degrees) at 18 MPH (16 knots; 8.2 m/s)
Visibility: 4 miles ( 7 km)
Ceiling: 3600 feet AGL
Clouds: broken clouds at 3600 feet AGL
Weather: -TSRA  (light rain associated with thunderstorm(s))

METAR text: UIII 190900Z 29007MPS 9999 SCT043CB 19/14 Q1010 R30/CLRD60 NOSIG RMK QFE713/0951
Conditions at: UIII (IRKUTSK , RU) observed 0900 UTC 19 August 2019
Temperature: 19.0°C (66°F)
Dewpoint: 14.0°C (57°F) [RH = 73%]
Pressure (altimeter): 29.82 inches Hg (1010.0 mb)
Winds: from the WNW (290 degrees) at 16 MPH (14 knots; 7.2 m/s)
Visibility: 6 or more miles (10+ km)
Ceiling: at least 12,000 feet AGL
Clouds: scattered clouds at 4300 feet AGL
Weather: no significant weather observed at this time

METAR text: UIII 190830Z 30004MPS 9999 SCT050CB 20/12 Q1010 R30/CLRD60 NOSIG RMK QFE713/0951
Conditions at: UIII (IRKUTSK , RU) observed 0830 UTC 19 August 2019
Temperature: 20.0°C (68°F)
Dewpoint: 12.0°C (54°F) [RH = 60%]
Pressure (altimeter): 29.82 inches Hg (1010.0 mb)
Winds: from the WNW (300 degrees) at 9 MPH (8 knots; 4.1 m/s)
Visibility: 6 or more miles (10+ km)
Ceiling: at least 12,000 feet AGL
Clouds: scattered clouds at 5000 feet AGL
Weather: no significant weather observed at this time

METAR text: UIII 190800Z 31005MPS 9999 SCT040CB 19/13 Q1010 R30/CLRD60 NOSIG RMK QFE713/0951
Conditions at: UIII (IRKUTSK , RU) observed 0800 UTC 19 August 2019
Temperature: 19.0°C (66°F)
Dewpoint: 13.0°C (55°F) [RH = 68%]
Pressure (altimeter): 29.82 inches Hg (1010.0 mb)
Winds: from the NW (310 degrees) at 12 MPH (10 knots; 5.1 m/s)
Visibility: 6 or more miles (10+ km)
Ceiling: at least 12,000 feet AGL
Clouds: scattered clouds at 4000 feet AGL
Weather: no significant weather observed at this time

METAR text: UIII 190730Z 31005MPS 9000 -SHRA SCT040CB 18/13 Q1010 R30/CLRD60 NOSIG RMK QFE713/0951
Conditions at: UIII (IRKUTSK , RU) observed 0730 UTC 19 August 2019
Temperature: 18.0°C (64°F)
Dewpoint: 13.0°C (55°F) [RH = 73%]
Pressure (altimeter): 29.82 inches Hg (1010.0 mb)
Winds: from the NW (310 degrees) at 12 MPH (10 knots; 5.1 m/s)
Visibility: 6 miles ( 9 km)
Ceiling: at least 12,000 feet AGL
Clouds: scattered clouds at 4000 feet AGL
Weather: -SHRA  (light rain showers)

METAR text: UIII 190700Z 31005MPS 260V330 9999 SCT033CB 20/13 Q1010 R30/CLRD60 NOSIG RMK QFE713/0951
Conditions at: UIII (IRKUTSK , RU) observed 0700 UTC 19 August 2019
Temperature: 20.0°C (68°F)
Dewpoint: 13.0°C (55°F) [RH = 64%]
Pressure (altimeter): 29.82 inches Hg (1010.0 mb)
Winds: from the NW (310 degrees) at 12 MPH (10 knots; 5.1 m/s)
Visibility: 6 or more miles (10+ km)
Ceiling: at least 12,000 feet AGL
Clouds: scattered clouds at 3300 feet AGL
Weather: no significant weather observed at this time

METAR text: UIII 190630Z 31006MPS 9999 SCT033CB 20/13 Q1010 R30/60D NOSIG RMK QFE713/0951
Conditions at: UIII (IRKUTSK , RU) observed 0630 UTC 19 August 2019
Temperature: 20.0°C (68°F)
Dewpoint: 13.0°C (55°F) [RH = 64%]
Pressure (altimeter): 29.82 inches Hg (1010.0 mb)
Winds: from the NW (310 degrees) at 14 MPH (12 knots; 6.2 m/s)
Visibility: 6 or more miles (10+ km)
Ceiling: at least 12,000 feet AGL
Clouds: scattered clouds at 3300 feet AGL
Weather: no significant weather observed at this time

METAR text: UIII 190600Z 28005MPS 9999 FEW033 19/13 Q1010 R30/CLRD60 NOSIG RMK QFE713/0951
Conditions at: UIII (IRKUTSK , RU) observed 0600 UTC 19 August 2019
Temperature: 19.0°C (66°F)
Dewpoint: 13.0°C (55°F) [RH = 68%]
Pressure (altimeter): 29.82 inches Hg (1010.0 mb)
Winds: from the W (280 degrees) at 12 MPH (10 knots; 5.1 m/s)
Visibility: 6 or more miles (10+ km)
Ceiling: at least 12,000 feet AGL
Clouds: few clouds at 3300 feet AGL
Weather: no significant weather observed at this time

METAR text: UIII 190530Z 29005MPS 8000 FEW033 19/14 Q1010 R30/CLRD60 NOSIG RMK QFE713/0951
Conditions at: UIII (IRKUTSK , RU) observed 0530 UTC 19 August 2019
Temperature: 19.0°C (66°F)
Dewpoint: 14.0°C (57°F) [RH = 73%]
Pressure (altimeter): 29.82 inches Hg (1010.0 mb)
Winds: from the WNW (290 degrees) at 12 MPH (10 knots; 5.1 m/s)
Visibility: 5 miles ( 8 km)
Ceiling: at least 12,000 feet AGL
Clouds: few clouds at 3300 feet AGL
Weather: no significant weather observed at this time

METAR text: UIII 190500Z 28004MPS 250V320 8000 FEW033 18/13 Q1010 R30/CLRD60 NOSIG RMK QFE713/0951
Conditions at: UIII (IRKUTSK , RU) observed 0500 UTC 19 August 2019
Temperature: 18.0°C (64°F)
Dewpoint: 13.0°C (55°F) [RH = 73%]
Pressure (altimeter): 29.82 inches Hg (1010.0 mb)
Winds: from the W (280 degrees) at 9 MPH (8 knots; 4.1 m/s)
Visibility: 5 miles ( 8 km)
Ceiling: at least 12,000 feet AGL
Clouds: few clouds at 3300 feet AGL
Weather: no significant weather observed at this time

METAR text: UIII 190430Z 28004MPS 9999 FEW033 17/13 Q1010 R30/CLRD60 NOSIG RMK QFE713/0951
Conditions at: UIII (IRKUTSK , RU) observed 0430 UTC 19 August 2019
Temperature: 17.0°C (63°F)
Dewpoint: 13.0°C (55°F) [RH = 77%]
Pressure (altimeter): 29.82 inches Hg (1010.0 mb)
Winds: from the W (280 degrees) at 9 MPH (8 knots; 4.1 m/s)
Visibility: 6 or more miles (10+ km)
Ceiling: at least 12,000 feet AGL
Clouds: few clouds at 3300 feet AGL
Weather: no significant weather observed at this time

METAR text: UIII 190400Z 29003MPS 9999 FEW016 16/13 Q1010 R30/CLRD60 NOSIG RMK QFE713/0951
Conditions at: UIII (IRKUTSK , RU) observed 0400 UTC 19 August 2019
Temperature: 16.0°C (61°F)
Dewpoint: 13.0°C (55°F) [RH = 82%]
Pressure (altimeter): 29.82 inches Hg (1010.0 mb)
Winds: from the WNW (290 degrees) at 7 MPH (6 knots; 3.1 m/s)
Visibility: 6 or more miles (10+ km)
Ceiling: at least 12,000 feet AGL
Clouds: few clouds at 1600 feet AGL
Weather: no significant weather observed at this time

METAR text: UIII 190330Z 28003MPS 9999 FEW018 16/13 Q1010 R30/60D NOSIG RMK QFE713/0951
Conditions at: UIII (IRKUTSK , RU) observed 0330 UTC 19 August 2019
Temperature: 16.0°C (61°F)
Dewpoint: 13.0°C (55°F) [RH = 82%]
Pressure (altimeter): 29.82 inches Hg (1010.0 mb)
Winds: from the W (280 degrees) at 7 MPH (6 knots; 3.1 m/s)
Visibility: 6 or more miles (10+ km)
Ceiling: at least 12,000 feet AGL
Clouds: few clouds at 1800 feet AGL
Weather: no significant weather observed at this time

METAR text: UIII 190300Z 24002MPS 180V300 CAVOK 16/13 Q1010 R30/CLRD60 NOSIG RMK QFE713/0951
Conditions at: UIII (IRKUTSK , RU) observed 0300 UTC 19 August 2019
Temperature: 16.0°C (61°F)
Dewpoint: 13.0°C (55°F) [RH = 82%]
Pressure (altimeter): 29.82 inches Hg (1010.0 mb)
Winds: from the WSW (240 degrees) at 5 MPH (4 knots; 2.1 m/s)
Visibility: 6 or more miles (10+ km)
Ceiling: ceiling and visibility are OK
Clouds: unknown
Weather: no significant weather observed at this time

METAR text: UIII 190230Z 30002MPS 270V340 9000 NSC 14/12 Q1010 R30/CLRD60 NOSIG RMK QFE713/0951
Conditions at: UIII (IRKUTSK , RU) observed 0230 UTC 19 August 2019
Temperature: 14.0°C (57°F)
Dewpoint: 12.0°C (54°F) [RH = 88%]
Pressure (altimeter): 29.82 inches Hg (1010.0 mb)
Winds: from the WNW (300 degrees) at 5 MPH (4 knots; 2.1 m/s)
Visibility: 6 miles ( 9 km)
Ceiling: at least 12,000 feet AGL
Clouds: sky clear below 12,000 feet AGL
Weather: no significant weather observed at this time

METAR text: UIII 190200Z 32002MPS 270V010 9000 NSC 14/12 Q1010 R30/CLRD60 NOSIG RMK QFE713/0951
Conditions at: UIII (IRKUTSK , RU) observed 0200 UTC 19 August 2019
Temperature: 14.0°C (57°F)
Dewpoint: 12.0°C (54°F) [RH = 88%]
Pressure (altimeter): 29.82 inches Hg (1010.0 mb)
Winds: from the NW (320 degrees) at 5 MPH (4 knots; 2.1 m/s)
Visibility: 6 miles ( 9 km)
Ceiling: at least 12,000 feet AGL
Clouds: sky clear below 12,000 feet AGL
Weather: no significant weather observed at this time

METAR text: UIII 190130Z 30002MPS 250V350 9000 FEW007 13/12 Q1010 R30/CLRD60 NOSIG RMK QBB210 QFE713/0951
Conditions at: UIII (IRKUTSK , RU) observed 0130 UTC 19 August 2019
Temperature: 13.0°C (55°F)
Dewpoint: 12.0°C (54°F) [RH = 94%]
Pressure (altimeter): 29.82 inches Hg (1010.0 mb)
Winds: from the WNW (300 degrees) at 5 MPH (4 knots; 2.1 m/s)
Visibility: 6 miles ( 9 km)
Ceiling: at least 12,000 feet AGL
Clouds: few clouds at 700 feet AGL
Weather: no significant weather observed at this time

METAR text: UIII 190100Z 28002MPS 9999 FEW008 12/12 Q1010 R12/60D NOSIG RMK QBB250 QFE715/0954
Conditions at: UIII (IRKUTSK , RU) observed 0100 UTC 19 August 2019
Temperature: 12.0°C (54°F)
Dewpoint: 12.0°C (54°F) [RH = 100%]
Pressure (altimeter): 29.82 inches Hg (1010.0 mb)
Winds: from the W (280 degrees) at 5 MPH (4 knots; 2.1 m/s)
Visibility: 6 or more miles (10+ km)
Ceiling: at least 12,000 feet AGL
Clouds: few clouds at 800 feet AGL
Weather: no significant weather observed at this time

METAR text: UIII 190030Z VRB01MPS 9999 FEW007 11/11 Q1010 R12/60D NOSIG RMK QBB210 QFE715/0954
Conditions at: UIII (IRKUTSK , RU) observed 0030 UTC 19 August 2019
Temperature: 11.0°C (52°F)
Dewpoint: 11.0°C (52°F) [RH = 100%]
Pressure (altimeter): 29.82 inches Hg (1010.0 mb)
Winds: variable direction winds at 2 MPH (2 knots; 1.0 m/s)
Visibility: 6 or more miles (10+ km)
Ceiling: at least 12,000 feet AGL
Clouds: few clouds at 700 feet AGL
Weather: no significant weather observed at this time

METAR text: UIII 190000Z VRB01MPS 8000 FEW006 11/11 Q1010 R12/60D NOSIG RMK QBB200 QFE715/0953
Conditions at: UIII (IRKUTSK , RU) observed 0000 UTC 19 August 2019
Temperature: 11.0°C (52°F)
Dewpoint: 11.0°C (52°F) [RH = 100%]
Pressure (altimeter): 29.82 inches Hg (1010.0 mb)
Winds: variable direction winds at 2 MPH (2 knots; 1.0 m/s)
Visibility: 5 miles ( 8 km)
Ceiling: at least 12,000 feet AGL
Clouds: few clouds at 600 feet AGL
Weather: no significant weather observed at this time

METAR text: UIII 182330Z 04002MPS 9000 4100SE BR FEW006 10/10 Q1009 R12/60D NOSIG RMK QBB200 QFE715/0953
Conditions at: UIII (IRKUTSK , RU) observed 2330 UTC 18 August 2019
Temperature: 10.0°C (50°F)
Dewpoint: 10.0°C (50°F) [RH = 100%]
Pressure (altimeter): 29.79 inches Hg (1009.0 mb)
Winds: from the NE (40 degrees) at 5 MPH (4 knots; 2.1 m/s)
Visibility: 6 miles ( 9 km)
Ceiling: at least 12,000 feet AGL
Clouds: few clouds at 600 feet AGL
Weather: BR  (mist)

METAR text: UIII 182300Z VRB01MPS 7000 0900SE BCFG SCT005 09/09 Q1010 R12/60D NOSIG RMK QBB170 QFE715/0953
Conditions at: UIII (IRKUTSK , RU) observed 2300 UTC 18 August 2019
Temperature: 9.0°C (48°F)
Dewpoint: 9.0°C (48°F) [RH = 100%]
Pressure (altimeter): 29.82 inches Hg (1010.0 mb)
Winds: variable direction winds at 2 MPH (2 knots; 1.0 m/s)
Visibility: 4 miles ( 7 km)
Ceiling: at least 12,000 feet AGL
Clouds: scattered clouds at 500 feet AGL
Weather: BCFG  (patches of fog)

METAR text: UIII 182230Z 05002MPS 020V090 8000 FEW001 08/08 Q1009 R30/60D NOSIG RMK QBB040 QFE713/0950
Conditions at: UIII (IRKUTSK , RU) observed 2230 UTC 18 August 2019
Temperature: 8.0°C (46°F)
Dewpoint: 8.0°C (46°F) [RH = 100%]
Pressure (altimeter): 29.79 inches Hg (1009.0 mb)
Winds: from the NE (50 degrees) at 5 MPH (4 knots; 2.1 m/s)
Visibility: 5 miles ( 8 km)
Ceiling: at least 12,000 feet AGL
Clouds: few clouds at 100 feet AGL
Weather: no significant weather observed at this time

METAR text: UIII 182200Z 05002MPS 7000 NSC 08/08 Q1009 R30/CLRD60 NOSIG RMK QFE713/0950
Conditions at: UIII (IRKUTSK , RU) observed 2200 UTC 18 August 2019
Temperature: 8.0°C (46°F)
Dewpoint: 8.0°C (46°F) [RH = 100%]
Pressure (altimeter): 29.79 inches Hg (1009.0 mb)
Winds: from the NE (50 degrees) at 5 MPH (4 knots; 2.1 m/s)
Visibility: 4 miles ( 7 km)
Ceiling: at least 12,000 feet AGL
Clouds: sky clear below 12,000 feet AGL
Weather: no significant weather observed at this time

METAR text: UIII 182130Z 05003MPS 030V110 7000 NSC 08/08 Q1009 R30/60D NOSIG RMK QFE713/0950
Conditions at: UIII (IRKUTSK , RU) observed 2130 UTC 18 August 2019
Temperature: 8.0°C (46°F)
Dewpoint: 8.0°C (46°F) [RH = 100%]
Pressure (altimeter): 29.79 inches Hg (1009.0 mb)
Winds: from the NE (50 degrees) at 7 MPH (6 knots; 3.1 m/s)
Visibility: 4 miles ( 7 km)
Ceiling: at least 12,000 feet AGL
Clouds: sky clear below 12,000 feet AGL
Weather: no significant weather observed at this time

METAR text: UIII 182100Z 06002MPS 6000 NSC 09/09 Q1009 R30/60D NOSIG RMK QFE713/0950
Conditions at: UIII (IRKUTSK , RU) observed 2100 UTC 18 August 2019
Temperature: 9.0°C (48°F)
Dewpoint: 9.0°C (48°F) [RH = 100%]
Pressure (altimeter): 29.79 inches Hg (1009.0 mb)
Winds: from the ENE (60 degrees) at 5 MPH (4 knots; 2.1 m/s)
Visibility: 4 miles ( 6 km)
Ceiling: at least 12,000 feet AGL
Clouds: sky clear below 12,000 feet AGL
Weather: no significant weather observed at this time

METAR text: UIII 182030Z VRB01MPS 6000 FEW005 09/09 Q1010 R12/CLRD60 NOSIG RMK QBB150 QFE715/0953
Conditions at: UIII (IRKUTSK , RU) observed 2030 UTC 18 August 2019
Temperature: 9.0°C (48°F)
Dewpoint: 9.0°C (48°F) [RH = 100%]
Pressure (altimeter): 29.82 inches Hg (1010.0 mb)
Winds: variable direction winds at 2 MPH (2 knots; 1.0 m/s)
Visibility: 4 miles ( 6 km)
Ceiling: at least 12,000 feet AGL
Clouds: few clouds at 500 feet AGL
Weather: no significant weather observed at this time

METAR text: UIII 182000Z VRB01MPS 9999 FEW002 11/11 Q1010 R12/CLRD60 NOSIG RMK QBB060 QFE715/0954
Conditions at: UIII (IRKUTSK , RU) observed 2000 UTC 18 August 2019
Temperature: 11.0°C (52°F)
Dewpoint: 11.0°C (52°F) [RH = 100%]
Pressure (altimeter): 29.82 inches Hg (1010.0 mb)
Winds: variable direction winds at 2 MPH (2 knots; 1.0 m/s)
Visibility: 6 or more miles (10+ km)
Ceiling: at least 12,000 feet AGL
Clouds: few clouds at 200 feet AGL
Weather: no significant weather observed at this time

METAR text: UIII 181930Z VRB01MPS 7000 NSC 09/09 Q1010 R12/60D NOSIG RMK QFE715/0954
Conditions at: UIII (IRKUTSK , RU) observed 1930 UTC 18 August 2019
Temperature: 9.0°C (48°F)
Dewpoint: 9.0°C (48°F) [RH = 100%]
Pressure (altimeter): 29.82 inches Hg (1010.0 mb)
Winds: variable direction winds at 2 MPH (2 knots; 1.0 m/s)
Visibility: 4 miles ( 7 km)
Ceiling: at least 12,000 feet AGL
Clouds: sky clear below 12,000 feet AGL
Weather: no significant weather observed at this time

METAR text: UIII 181900Z 04003MPS 6000 NSC 09/09 Q1010 R12/CLRD60 NOSIG RMK QFE715/0953
Conditions at: UIII (IRKUTSK , RU) observed 1900 UTC 18 August 2019
Temperature: 9.0°C (48°F)
Dewpoint: 9.0°C (48°F) [RH = 100%]
Pressure (altimeter): 29.82 inches Hg (1010.0 mb)
Winds: from the NE (40 degrees) at 7 MPH (6 knots; 3.1 m/s)
Visibility: 4 miles ( 6 km)
Ceiling: at least 12,000 feet AGL
Clouds: sky clear below 12,000 feet AGL
Weather: no significant weather observed at this time

METAR text: UIII 181830Z 14002MPS 080V190 6000 NSC 10/10 Q1010 R12/CLRD60 NOSIG RMK QFE715/0954
Conditions at: UIII (IRKUTSK , RU) observed 1830 UTC 18 August 2019
Temperature: 10.0°C (50°F)
Dewpoint: 10.0°C (50°F) [RH = 100%]
Pressure (altimeter): 29.82 inches Hg (1010.0 mb)
Winds: from the SE (140 degrees) at 5 MPH (4 knots; 2.1 m/s)
Visibility: 4 miles ( 6 km)
Ceiling: at least 12,000 feet AGL
Clouds: sky clear below 12,000 feet AGL
Weather: no significant weather observed at this time

METAR text: UIII 181800Z 08002MPS 5000 BR SCT003 10/10 Q1010 R12/CLRD60 NOSIG RMK QBB100 QFE715/0954
Conditions at: UIII (IRKUTSK , RU) observed 1800 UTC 18 August 2019
Temperature: 10.0°C (50°F)
Dewpoint: 10.0°C (50°F) [RH = 100%]
Pressure (altimeter): 29.82 inches Hg (1010.0 mb)
Winds: from the E (80 degrees) at 5 MPH (4 knots; 2.1 m/s)
Visibility: 3 miles ( 5 km)
Ceiling: at least 12,000 feet AGL
Clouds: scattered clouds at 300 feet AGL
Weather: BR  (mist)

METAR text: UIII 181730Z 07002MPS 3900 0900NW R12/1800D BCFG OVC001 10/10 Q1010 R12/CLRD60 NOSIG RMK QBB050 QFE716/0954
Conditions at: UIII (IRKUTSK , RU) observed 1730 UTC 18 August 2019
Temperature: 10.0°C (50°F)
Dewpoint: 10.0°C (50°F) [RH = 100%]
Pressure (altimeter): 29.82 inches Hg (1010.0 mb)
Winds: from the ENE (70 degrees) at 5 MPH (4 knots; 2.1 m/s)
Visibility: 2.42 miles (3.89 km)
Ceiling: 100 feet AGL
Clouds: overcast cloud deck at 100 feet AGL
Weather: BCFG  (patches of fog)

METAR text: UIII 181700Z 09002MPS 050V120 5000 BR BKN002 11/11 Q1010 R12/CLRD60 NOSIG RMK QBB060 QFE716/0954
Conditions at: UIII (IRKUTSK , RU) observed 1700 UTC 18 August 2019
Temperature: 11.0°C (52°F)
Dewpoint: 11.0°C (52°F) [RH = 100%]
Pressure (altimeter): 29.82 inches Hg (1010.0 mb)
Winds: from the E (90 degrees) at 5 MPH (4 knots; 2.1 m/s)
Visibility: 3 miles ( 5 km)
Ceiling: 200 feet AGL
Clouds: broken clouds at 200 feet AGL
Weather: BR  (mist)

METAR text: UIII 181630Z 07002MPS 060V120 4400 BR SCT002 11/11 Q1010 R30/60D NOSIG RMK QBB080 QFE713/0951
Conditions at: UIII (IRKUTSK , RU) observed 1630 UTC 18 August 2019
Temperature: 11.0°C (52°F)
Dewpoint: 11.0°C (52°F) [RH = 100%]
Pressure (altimeter): 29.82 inches Hg (1010.0 mb)
Winds: from the ENE (70 degrees) at 5 MPH (4 knots; 2.1 m/s)
Visibility: 2.73 miles (4.39 km)
Ceiling: at least 12,000 feet AGL
Clouds: scattered clouds at 200 feet AGL
Weather: BR  (mist)

METAR text: UIII 181600Z 05002MPS 4800 BR NSC 11/11 Q1010 R30/60D NOSIG RMK QFE713/0951
Conditions at: UIII (IRKUTSK , RU) observed 1600 UTC 18 August 2019
Temperature: 11.0°C (52°F)
Dewpoint: 11.0°C (52°F) [RH = 100%]
Pressure (altimeter): 29.82 inches Hg (1010.0 mb)
Winds: from the NE (50 degrees) at 5 MPH (4 knots; 2.1 m/s)
Visibility: 2.98 miles (4.80 km)
Ceiling: at least 12,000 feet AGL
Clouds: sky clear below 12,000 feet AGL
Weather: BR  (mist)

METAR text: UIII 181530Z 07003MPS 5000 BR NSC 12/12 Q1010 R30/60D NOSIG RMK QFE713/0951
Conditions at: UIII (IRKUTSK , RU) observed 1530 UTC 18 August 2019
Temperature: 12.0°C (54°F)
Dewpoint: 12.0°C (54°F) [RH = 100%]
Pressure (altimeter): 29.82 inches Hg (1010.0 mb)
Winds: from the ENE (70 degrees) at 7 MPH (6 knots; 3.1 m/s)
Visibility: 3 miles ( 5 km)
Ceiling: at least 12,000 feet AGL
Clouds: sky clear below 12,000 feet AGL
Weather: BR  (mist)

METAR text: UIII 181500Z 06003MPS 3600 BR NSC 12/12 Q1011 R30/CLRD60 NOSIG RMK QFE713/0951
Conditions at: UIII (IRKUTSK , RU) observed 1500 UTC 18 August 2019
Temperature: 12.0°C (54°F)
Dewpoint: 12.0°C (54°F) [RH = 100%]
Pressure (altimeter): 29.85 inches Hg (1011.0 mb)
Winds: from the ENE (60 degrees) at 7 MPH (6 knots; 3.1 m/s)
Visibility: 2.24 miles (3.60 km)
Ceiling: at least 12,000 feet AGL
Clouds: sky clear below 12,000 feet AGL
Weather: BR  (mist)

METAR text: UIII 181430Z 06003MPS 4700 BR NSC 13/13 Q1011 R30/60D NOSIG RMK QFE714/0952
Conditions at: UIII (IRKUTSK , RU) observed 1430 UTC 18 August 2019
Temperature: 13.0°C (55°F)
Dewpoint: 13.0°C (55°F) [RH = 100%]
Pressure (altimeter): 29.85 inches Hg (1011.0 mb)
Winds: from the ENE (60 degrees) at 7 MPH (6 knots; 3.1 m/s)
Visibility: 2.92 miles (4.70 km)
Ceiling: at least 12,000 feet AGL
Clouds: sky clear below 12,000 feet AGL
Weather: BR  (mist)

METAR text: UIII 181400Z 06002MPS 4400 BR NSC 13/13 Q1011 R30/60D NOSIG RMK QFE714/0952
Conditions at: UIII (IRKUTSK , RU) observed 1400 UTC 18 August 2019
Temperature: 13.0°C (55°F)
Dewpoint: 13.0°C (55°F) [RH = 100%]
Pressure (altimeter): 29.85 inches Hg (1011.0 mb)
Winds: from the ENE (60 degrees) at 5 MPH (4 knots; 2.1 m/s)
Visibility: 2.73 miles (4.39 km)
Ceiling: at least 12,000 feet AGL
Clouds: sky clear below 12,000 feet AGL
Weather: BR  (mist)

METAR text: UIII 181330Z 23001MPS 4200 BR NSC 15/15 Q1011 R30/60D NOSIG RMK QFE714/0952
Conditions at: UIII (IRKUTSK , RU) observed 1330 UTC 18 August 2019
Temperature: 15.0°C (59°F)
Dewpoint: 15.0°C (59°F) [RH = 100%]
Pressure (altimeter): 29.85 inches Hg (1011.0 mb)
Winds: from the SW (230 degrees) at 2 MPH (2 knots; 1.0 m/s)
Visibility: 2.61 miles (4.20 km)
Ceiling: at least 12,000 feet AGL
Clouds: sky clear below 12,000 feet AGL
Weather: BR  (mist)

METAR text: UIII 181300Z 00000MPS 6000 NSC 16/13 Q1011 R30/60D NOSIG RMK QFE714/0952
Conditions at: UIII (IRKUTSK , RU) observed 1300 UTC 18 August 2019
Temperature: 16.0°C (61°F)
Dewpoint: 13.0°C (55°F) [RH = 82%]
Pressure (altimeter): 29.85 inches Hg (1011.0 mb)
Winds: calm
Visibility: 4 miles ( 6 km)
Ceiling: at least 12,000 feet AGL
Clouds: sky clear below 12,000 feet AGL
Weather: no significant weather observed at this time

METAR text: UIII 181230Z 00000MPS 8000 NSC 16/13 Q1011 R30/CLRD60 NOSIG RMK QFE714/0952
Conditions at: UIII (IRKUTSK , RU) observed 1230 UTC 18 August 2019
Temperature: 16.0°C (61°F)
Dewpoint: 13.0°C (55°F) [RH = 82%]
Pressure (altimeter): 29.85 inches Hg (1011.0 mb)
Winds: calm
Visibility: 5 miles ( 8 km)
Ceiling: at least 12,000 feet AGL
Clouds: sky clear below 12,000 feet AGL
Weather: no significant weather observed at this time

METAR text: UIII 181200Z 00000MPS CAVOK 17/13 Q1011 R30/CLRD60 NOSIG RMK QFE713/0951
Conditions at: UIII (IRKUTSK , RU) observed 1200 UTC 18 August 2019
Temperature: 17.0°C (63°F)
Dewpoint: 13.0°C (55°F) [RH = 77%]
Pressure (altimeter): 29.85 inches Hg (1011.0 mb)
Winds: calm
Visibility: 6 or more miles (10+ km)
Ceiling: ceiling and visibility are OK
Clouds: unknown
Weather: no significant weather observed at this time

METAR text: UIII 181130Z 00000MPS CAVOK 17/14 Q1011 R30/60D NOSIG RMK QFE714/0952
Conditions at: UIII (IRKUTSK , RU) observed 1130 UTC 18 August 2019
Temperature: 17.0°C (63°F)
Dewpoint: 14.0°C (57°F) [RH = 82%]
Pressure (altimeter): 29.85 inches Hg (1011.0 mb)
Winds: calm
Visibility: 6 or more miles (10+ km)
Ceiling: ceiling and visibility are OK
Clouds: unknown
Weather: no significant weather observed at this time

METAR text: UIII 181100Z 00000MPS CAVOK 18/14 Q1011 R30/60D NOSIG RMK QFE714/0952
Conditions at: UIII (IRKUTSK , RU) observed 1100 UTC 18 August 2019
Temperature: 18.0°C (64°F)
Dewpoint: 14.0°C (57°F) [RH = 77%]
Pressure (altimeter): 29.85 inches Hg (1011.0 mb)
Winds: calm
Visibility: 6 or more miles (10+ km)
Ceiling: ceiling and visibility are OK
Clouds: unknown
Weather: no significant weather observed at this time

METAR text: UIII 181030Z 11001MPS CAVOK 18/12 Q1011 R30/CLRD60 NOSIG RMK QFE714/0952
Conditions at: UIII (IRKUTSK , RU) observed 1030 UTC 18 August 2019
Temperature: 18.0°C (64°F)
Dewpoint: 12.0°C (54°F) [RH = 68%]
Pressure (altimeter): 29.85 inches Hg (1011.0 mb)
Winds: from the ESE (110 degrees) at 2 MPH (2 knots; 1.0 m/s)
Visibility: 6 or more miles (10+ km)
Ceiling: ceiling and visibility are OK
Clouds: unknown
Weather: no significant weather observed at this time

METAR text: UIII 181000Z 02002MPS 330V060 CAVOK 19/12 Q1011 R30/60D NOSIG RMK QFE714/0952
Conditions at: UIII (IRKUTSK , RU) observed 1000 UTC 18 August 2019
Temperature: 19.0°C (66°F)
Dewpoint: 12.0°C (54°F) [RH = 64%]
Pressure (altimeter): 29.85 inches Hg (1011.0 mb)
Winds: from the NNE (20 degrees) at 5 MPH (4 knots; 2.1 m/s)
Visibility: 6 or more miles (10+ km)
Ceiling: ceiling and visibility are OK
Clouds: unknown
Weather: no significant weather observed at this time

METAR text: UIII 180930Z 07002MPS 030V130 CAVOK 19/12 Q1011 R30/60D NOSIG RMK QFE714/0952
Conditions at: UIII (IRKUTSK , RU) observed 0930 UTC 18 August 2019
Temperature: 19.0°C (66°F)
Dewpoint: 12.0°C (54°F) [RH = 64%]
Pressure (altimeter): 29.85 inches Hg (1011.0 mb)
Winds: from the ENE (70 degrees) at 5 MPH (4 knots; 2.1 m/s)
Visibility: 6 or more miles (10+ km)
Ceiling: ceiling and visibility are OK
Clouds: unknown
Weather: no significant weather observed at this time

METAR text: UIII 180900Z 02002MPS CAVOK 19/12 Q1011 R30/CLRD60 NOSIG RMK QFE714/0952
Conditions at: UIII (IRKUTSK , RU) observed 0900 UTC 18 August 2019
Temperature: 19.0°C (66°F)
Dewpoint: 12.0°C (54°F) [RH = 64%]
Pressure (altimeter): 29.85 inches Hg (1011.0 mb)
Winds: from the NNE (20 degrees) at 5 MPH (4 knots; 2.1 m/s)
Visibility: 6 or more miles (10+ km)
Ceiling: ceiling and visibility are OK
Clouds: unknown
Weather: no significant weather observed at this time

METAR text: UIII 180830Z 03002MPS CAVOK 19/13 Q1011 R30/CLRD60 NOSIG RMK QFE714/0952
Conditions at: UIII (IRKUTSK , RU) observed 0830 UTC 18 August 2019
Temperature: 19.0°C (66°F)
Dewpoint: 13.0°C (55°F) [RH = 68%]
Pressure (altimeter): 29.85 inches Hg (1011.0 mb)
Winds: from the NNE (30 degrees) at 5 MPH (4 knots; 2.1 m/s)
Visibility: 6 or more miles (10+ km)
Ceiling: ceiling and visibility are OK
Clouds: unknown
Weather: no significant weather observed at this time

METAR text: UIII 180800Z 06003MPS 020V110 8000 SCT020 18/14 Q1012 R30/CLRD60 NOSIG RMK QFE714/0952
Conditions at: UIII (IRKUTSK , RU) observed 0800 UTC 18 August 2019
Temperature: 18.0°C (64°F)
Dewpoint: 14.0°C (57°F) [RH = 77%]
Pressure (altimeter): 29.88 inches Hg (1012.0 mb)
Winds: from the ENE (60 degrees) at 7 MPH (6 knots; 3.1 m/s)
Visibility: 5 miles ( 8 km)
Ceiling: at least 12,000 feet AGL
Clouds: scattered clouds at 2000 feet AGL
Weather: no significant weather observed at this time

METAR text: UIII 180730Z 02002MPS 7000 SCT033 18/14 Q1012 R30/CLRD60 NOSIG RMK QFE714/0953
Conditions at: UIII (IRKUTSK , RU) observed 0730 UTC 18 August 2019
Temperature: 18.0°C (64°F)
Dewpoint: 14.0°C (57°F) [RH = 77%]
Pressure (altimeter): 29.88 inches Hg (1012.0 mb)
Winds: from the NNE (20 degrees) at 5 MPH (4 knots; 2.1 m/s)
Visibility: 4 miles ( 7 km)
Ceiling: at least 12,000 feet AGL
Clouds: scattered clouds at 3300 feet AGL
Weather: no significant weather observed at this time

Forecast for: UIII (IRKUTSK , RU)
Text: TAF UIII 191700Z 1918/2018 28004MPS 9999 BKN012CB
Forecast period: 1800 UTC 19 August 2019 to 1800 UTC 20 August 2019
Forecast type: FROM: standard forecast or significant change
Winds: from the W (280 degrees) at 9 MPH (8 knots; 4.1 m/s)
Visibility: 6 or more miles 10+ km)
Ceiling: 1200 feet AGL
Clouds: broken clouds at 1200 feet AGL
Weather: no significant weather forecast for this period
Text: TEMPO 1918/2003 0500 -SHRA FG VV001
Forecast period: 1800 UTC 19 August 2019 to 0300 UTC 20 August 2019
Forecast type: TEMPORARY: The following changes expected for less than half the time period
Visibility: 0.31 miles (0.50 km)
Ceiling: indefinite ceiling with vertical visibility of 100 feet AGL
Clouds: obscured sky
Weather: -SHRA FG  (light rain showers, fog)